sensor_id;sensor_type;location;lat;lon;timestamp;pressure;altitude;pressure_sealevel;temperature;humidity
60244;BME280;46106;51.468;5.814;2023-05-24T00:02:21;102124.88;;;8.25;100.00
60244;BME280;46106;51.468;5.814;2023-05-24T00:04:48;102122.16;;;8.25;100.00
60244;BME280;46106;51.468;5.814;2023-05-24T00:07:14;102123.03;;;8.26;100.00
60244;BME280;46106;51.468;5.814;2023-05-24T00:20:01;102123.72;;;8.12;100.00
60244;BME280;46106;51.468;5.814;2023-05-24T00:22:26;102112.34;;;8.02;100.00
60244;BME280;46106;51.468;5.814;2023-05-24T00:24:52;102102.41;;;8.01;100.00
60244;BME280;46106;51.468;5.814;2023-05-24T00:27:17;102100.88;;;7.96;100.00
60244;BME280;46106;51.468;5.814;2023-05-24T00:29:43;102105.13;;;8.01;100.00
60244;BME280;46106;51.468;5.814;2023-05-24T00:32:08;102103.00;;;7.89;100.00
60244;BME280;46106;51.468;5.814;2023-05-24T00:34:34;102097.25;;;7.76;100.00
60244;BME280;46106;51.468;5.814;2023-05-24T00:36:59;102102.25;;;7.85;100.00
60244;BME280;46106;51.468;5.814;2023-05-24T00:39:25;102110.22;;;7.71;100.00
60244;BME280;46106;51.468;5.814;2023-05-24T00:41:51;102102.31;;;7.65;100.00
60244;BME280;46106;51.468;5.814;2023-05-24T00:44:16;102099.72;;;7.62;100.00
60244;BME280;46106;51.468;5.814;2023-05-24T00:46:42;102094.63;;;7.54;100.00
60244;BME280;46106;51.468;5.814;2023-05-24T00:49:08;102099.38;;;7.69;100.00
60244;BME280;46106;51.468;5.814;2023-05-24T00:51:34;102094.13;;;7.65;100.00
60244;BME280;46106;51.468;5.814;2023-05-24T00:54:01;102089.25;;;7.52;100.00
60244;BME280;46106;51.468;5.814;2023-05-24T00:56:26;102090.34;;;7.48;100.00
60244;BME280;46106;51.468;5.814;2023-05-24T00:58:52;102090.50;;;7.45;100.00
60244;BME280;46106;51.468;5.814;2023-05-24T01:01:20;102093.34;;;7.42;100.00
60244;BME280;46106;51.468;5.814;2023-05-24T01:03:51;102090.03;;;7.35;100.00
60244;BME280;46106;51.468;5.814;2023-05-24T01:06:18;102101.72;;;7.38;100.00
60244;BME280;46106;51.468;5.814;2023-05-24T01:09:12;102094.75;;;7.32;100.00
60244;BME280;46106;51.468;5.814;2023-05-24T01:14:44;102081.31;;;7.27;100.00
60244;BME280;46106;51.468;5.814;2023-05-24T01:17:28;102090.84;;;7.38;100.00
60244;BME280;46106;51.468;5.814;2023-05-24T01:20:04;102081.38;;;7.46;100.00
60244;BME280;46106;51.468;5.814;2023-05-24T01:25:52;102079.59;;;7.45;100.00
60244;BME280;46106;51.468;5.814;2023-05-24T01:28:19;102085.38;;;7.38;100.00
60244;BME280;46106;51.468;5.814;2023-05-24T01:30:45;102080.50;;;7.25;100.00
60244;BME280;46106;51.468;5.814;2023-05-24T01:33:11;102077.84;;;7.24;100.00
60244;BME280;46106;51.468;5.814;2023-05-24T01:35:37;102085.97;;;7.44;100.00
60244;BME280;46106;51.468;5.814;2023-05-24T01:38:06;102080.13;;;7.53;100.00
60244;BME280;46106;51.468;5.814;2023-05-24T01:40:32;102081.84;;;7.56;100.00
60244;BME280;46106;51.468;5.814;2023-05-24T01:43:06;102081.50;;;7.43;100.00
60244;BME280;46106;51.468;5.814;2023-05-24T01:45:41;102087.44;;;7.32;100.00
60244;BME280;46106;51.468;5.814;2023-05-24T01:48:22;102081.72;;;7.18;100.00
60244;BME280;46106;51.468;5.814;2023-05-24T01:50:55;102083.44;;;7.00;100.00
60244;BME280;46106;51.468;5.814;2023-05-24T01:53:23;102074.00;;;7.09;100.00
60244;BME280;46106;51.468;5.814;2023-05-24T01:55:54;102070.34;;;7.08;100.00
60244;BME280;46106;51.468;5.814;2023-05-24T01:58:22;102069.09;;;7.17;100.00
60244;BME280;46106;51.468;5.814;2023-05-24T02:00:48;102082.16;;;7.09;100.00
60244;BME280;46106;51.468;5.814;2023-05-24T02:03:15;102074.94;;;7.08;100.00
60244;BME280;46106;51.468;5.814;2023-05-24T02:05:41;102074.19;;;7.04;100.00
60244;BME280;46106;51.468;5.814;2023-05-24T02:08:08;102077.78;;;7.05;100.00
60244;BME280;46106;51.468;5.814;2023-05-24T02:10:34;102078.63;;;7.07;100.00
60244;BME280;46106;51.468;5.814;2023-05-24T02:13:02;102071.72;;;6.98;100.00
60244;BME280;46106;51.468;5.814;2023-05-24T02:15:28;102078.09;;;6.98;100.00
60244;BME280;46106;51.468;5.814;2023-05-24T02:17:54;102073.38;;;7.02;100.00
60244;BME280;46106;51.468;5.814;2023-05-24T02:20:20;102073.22;;;6.85;100.00
60244;BME280;46106;51.468;5.814;2023-05-24T02:22:47;102072.41;;;6.83;100.00
60244;BME280;46106;51.468;5.814;2023-05-24T02:25:13;102071.63;;;6.80;100.00
60244;BME280;46106;51.468;5.814;2023-05-24T02:27:38;102074.16;;;6.84;100.00
60244;BME280;46106;51.468;5.814;2023-05-24T02:30:05;102070.44;;;6.86;100.00
60244;BME280;46106;51.468;5.814;2023-05-24T02:32:31;102079.97;;;6.76;100.00
60244;BME280;46106;51.468;5.814;2023-05-24T02:34:57;102077.19;;;6.77;100.00
60244;BME280;46106;51.468;5.814;2023-05-24T02:37:24;102076.50;;;6.72;100.00
60244;BME280;46106;51.468;5.814;2023-05-24T02:39:49;102061.78;;;6.76;100.00
60244;BME280;46106;51.468;5.814;2023-05-24T02:42:15;102077.25;;;6.76;100.00
60244;BME280;46106;51.468;5.814;2023-05-24T02:44:40;102068.34;;;6.72;100.00
60244;BME280;46106;51.468;5.814;2023-05-24T02:47:07;102073.78;;;6.72;100.00
60244;BME280;46106;51.468;5.814;2023-05-24T02:49:32;102077.31;;;6.74;100.00
60244;BME280;46106;51.468;5.814;2023-05-24T02:51:58;102075.72;;;6.69;100.00
60244;BME280;46106;51.468;5.814;2023-05-24T02:54:24;102072.13;;;6.68;100.00
60244;BME280;46106;51.468;5.814;2023-05-24T02:56:50;102074.41;;;6.79;100.00
60244;BME280;46106;51.468;5.814;2023-05-24T02:59:16;102076.09;;;6.81;100.00
60244;BME280;46106;51.468;5.814;2023-05-24T03:01:41;102080.34;;;6.67;100.00
60244;BME280;46106;51.468;5.814;2023-05-24T03:04:07;102082.00;;;6.71;100.00
60244;BME280;46106;51.468;5.814;2023-05-24T03:06:32;102069.97;;;6.76;100.00
60244;BME280;46106;51.468;5.814;2023-05-24T03:08:58;102083.75;;;6.72;100.00
60244;BME280;46106;51.468;5.814;2023-05-24T03:11:23;102082.06;;;6.69;100.00
60244;BME280;46106;51.468;5.814;2023-05-24T03:13:49;102081.94;;;6.72;100.00
60244;BME280;46106;51.468;5.814;2023-05-24T03:16:14;102074.78;;;6.70;100.00
60244;BME280;46106;51.468;5.814;2023-05-24T03:18:41;102083.22;;;6.63;100.00
60244;BME280;46106;51.468;5.814;2023-05-24T03:21:06;102049.97;;;6.35;100.00
60244;BME280;46106;51.468;5.814;2023-05-24T03:23:32;102073.19;;;6.43;100.00
60244;BME280;46106;51.468;5.814;2023-05-24T03:25:57;102072.19;;;6.46;100.00
60244;BME280;46106;51.468;5.814;2023-05-24T03:28:23;102076.78;;;6.44;100.00
60244;BME280;46106;51.468;5.814;2023-05-24T03:30:48;102058.94;;;6.37;100.00
60244;BME280;46106;51.468;5.814;2023-05-24T03:33:14;102066.81;;;6.44;100.00
60244;BME280;46106;51.468;5.814;2023-05-24T03:35:39;102057.28;;;6.33;100.00
60244;BME280;46106;51.468;5.814;2023-05-24T03:38:05;102079.44;;;6.46;100.00
60244;BME280;46106;51.468;5.814;2023-05-24T03:40:30;102075.16;;;6.40;100.00
60244;BME280;46106;51.468;5.814;2023-05-24T03:42:58;102080.25;;;6.48;100.00
60244;BME280;46106;51.468;5.814;2023-05-24T03:45:24;102066.09;;;6.39;100.00
60244;BME280;46106;51.468;5.814;2023-05-24T03:47:49;102072.25;;;6.44;100.00
60244;BME280;46106;51.468;5.814;2023-05-24T03:50:14;102077.28;;;6.54;100.00
60244;BME280;46106;51.468;5.814;2023-05-24T03:52:41;102082.34;;;6.63;100.00
60244;BME280;46106;51.468;5.814;2023-05-24T03:55:07;102082.47;;;6.60;100.00
60244;BME280;46106;51.468;5.814;2023-05-24T03:57:32;102052.47;;;6.39;100.00
60244;BME280;46106;51.468;5.814;2023-05-24T03:59:58;102077.75;;;6.63;100.00
60244;BME280;46106;51.468;5.814;2023-05-24T04:02:24;102077.56;;;6.68;100.00
60244;BME280;46106;51.468;5.814;2023-05-24T04:04:50;102072.88;;;6.72;100.00
60244;BME280;46106;51.468;5.814;2023-05-24T04:07:15;102070.50;;;6.64;100.00
60244;BME280;46106;51.468;5.814;2023-05-24T04:09:41;102085.34;;;6.77;100.00
60244;BME280;46106;51.468;5.814;2023-05-24T04:12:07;102080.84;;;6.76;100.00
60244;BME280;46106;51.468;5.814;2023-05-24T04:14:32;102080.97;;;6.73;100.00
60244;BME280;46106;51.468;5.814;2023-05-24T04:16:59;102071.19;;;6.69;100.00
60244;BME280;46106;51.468;5.814;2023-05-24T04:19:28;102085.47;;;6.74;100.00
60244;BME280;46106;51.468;5.814;2023-05-24T04:21:53;102073.22;;;6.85;100.00
60244;BME280;46106;51.468;5.814;2023-05-24T04:24:19;102075.38;;;6.98;100.00
60244;BME280;46106;51.468;5.814;2023-05-24T04:26:44;102068.06;;;6.99;100.00
60244;BME280;46106;51.468;5.814;2023-05-24T04:29:12;102076.44;;;7.15;100.00
60244;BME280;46106;51.468;5.814;2023-05-24T04:31:39;102076.59;;;7.12;100.00
60244;BME280;46106;51.468;5.814;2023-05-24T04:34:09;102079.16;;;7.15;100.00
60244;BME280;46106;51.468;5.814;2023-05-24T04:36:38;102077.06;;;7.22;100.00
60244;BME280;46106;51.468;5.814;2023-05-24T04:39:04;102080.00;;;7.36;100.00
60244;BME280;46106;51.468;5.814;2023-05-24T04:41:29;102085.09;;;7.44;100.00
60244;BME280;46106;51.468;5.814;2023-05-24T04:44:00;102080.25;;;7.50;100.00
60244;BME280;46106;51.468;5.814;2023-05-24T04:46:26;102087.50;;;7.51;100.00
60244;BME280;46106;51.468;5.814;2023-05-24T04:48:52;102089.41;;;7.68;100.00
60244;BME280;46106;51.468;5.814;2023-05-24T04:51:20;102092.00;;;7.71;100.00
60244;BME280;46106;51.468;5.814;2023-05-24T04:53:45;102090.00;;;7.75;100.00
60244;BME280;46106;51.468;5.814;2023-05-24T04:56:10;102091.25;;;7.87;100.00
60244;BME280;46106;51.468;5.814;2023-05-24T04:58:39;102079.25;;;7.91;100.00
60244;BME280;46106;51.468;5.814;2023-05-24T05:01:05;102081.91;;;7.93;100.00
60244;BME280;46106;51.468;5.814;2023-05-24T05:03:30;102086.94;;;8.02;100.00
60244;BME280;46106;51.468;5.814;2023-05-24T05:05:56;102090.50;;;8.21;100.00
60244;BME280;46106;51.468;5.814;2023-05-24T05:08:24;102087.69;;;8.23;100.00
60244;BME280;46106;51.468;5.814;2023-05-24T05:10:50;102101.69;;;8.34;100.00
60244;BME280;46106;51.468;5.814;2023-05-24T05:13:15;102095.75;;;8.45;100.00
60244;BME280;46106;51.468;5.814;2023-05-24T05:15:41;102091.38;;;8.41;100.00
60244;BME280;46106;51.468;5.814;2023-05-24T05:18:07;102103.78;;;8.48;100.00
60244;BME280;46106;51.468;5.814;2023-05-24T05:20:32;102075.00;;;8.41;100.00
60244;BME280;46106;51.468;5.814;2023-05-24T05:22:58;102093.44;;;8.72;100.00
60244;BME280;46106;51.468;5.814;2023-05-24T05:25:23;102082.78;;;8.68;100.00
60244;BME280;46106;51.468;5.814;2023-05-24T05:27:48;102093.22;;;8.94;100.00
60244;BME280;46106;51.468;5.814;2023-05-24T05:30:14;102082.31;;;8.94;100.00
60244;BME280;46106;51.468;5.814;2023-05-24T05:32:40;102087.09;;;9.42;100.00
60244;BME280;46106;51.468;5.814;2023-05-24T05:35:05;102091.94;;;9.52;100.00
60244;BME280;46106;51.468;5.814;2023-05-24T05:37:31;102078.56;;;9.48;100.00
60244;BME280;46106;51.468;5.814;2023-05-24T05:39:56;102088.59;;;9.81;100.00
60244;BME280;46106;51.468;5.814;2023-05-24T05:42:22;102090.63;;;9.93;100.00
60244;BME280;46106;51.468;5.814;2023-05-24T05:44:47;102093.72;;;10.19;100.00
60244;BME280;46106;51.468;5.814;2023-05-24T05:47:13;102068.56;;;10.12;100.00
60244;BME280;46106;51.468;5.814;2023-05-24T05:49:38;102090.09;;;10.18;100.00
60244;BME280;46106;51.468;5.814;2023-05-24T05:52:04;102086.13;;;10.24;100.00
60244;BME280;46106;51.468;5.814;2023-05-24T05:54:30;102096.28;;;10.54;100.00
60244;BME280;46106;51.468;5.814;2023-05-24T05:56:56;102092.41;;;10.88;100.00
60244;BME280;46106;51.468;5.814;2023-05-24T05:59:22;102097.34;;;10.97;100.00
60244;BME280;46106;51.468;5.814;2023-05-24T06:01:47;102103.34;;;11.04;100.00
60244;BME280;46106;51.468;5.814;2023-05-24T06:04:14;102098.09;;;11.44;100.00
60244;BME280;46106;51.468;5.814;2023-05-24T06:06:39;102098.31;;;11.70;100.00
60244;BME280;46106;51.468;5.814;2023-05-24T06:09:05;102097.81;;;12.06;100.00
60244;BME280;46106;51.468;5.814;2023-05-24T06:11:31;102111.28;;;11.97;100.00
60244;BME280;46106;51.468;5.814;2023-05-24T06:13:56;102114.00;;;12.53;100.00
60244;BME280;46106;51.468;5.814;2023-05-24T06:16:21;102111.13;;;12.27;100.00
60244;BME280;46106;51.468;5.814;2023-05-24T06:18:47;102118.28;;;12.71;100.00
60244;BME280;46106;51.468;5.814;2023-05-24T06:21:13;102107.94;;;12.75;100.00
60244;BME280;46106;51.468;5.814;2023-05-24T06:23:39;102108.34;;;12.96;100.00
60244;BME280;46106;51.468;5.814;2023-05-24T06:26:05;102106.25;;;12.99;100.00
60244;BME280;46106;51.468;5.814;2023-05-24T06:28:34;102113.50;;;13.66;100.00
60244;BME280;46106;51.468;5.814;2023-05-24T06:31:03;102123.38;;;14.07;100.00
60244;BME280;46106;51.468;5.814;2023-05-24T06:33:29;102121.75;;;13.53;100.00
60244;BME280;46106;51.468;5.814;2023-05-24T06:35:56;102119.66;;;13.83;100.00
60244;BME280;46106;51.468;5.814;2023-05-24T06:38:22;102120.94;;;13.26;100.00
60244;BME280;46106;51.468;5.814;2023-05-24T06:40:47;102108.81;;;13.15;100.00
60244;BME280;46106;51.468;5.814;2023-05-24T06:43:12;102118.59;;;14.59;100.00
60244;BME280;46106;51.468;5.814;2023-05-24T06:45:38;102118.84;;;15.04;100.00
60244;BME280;46106;51.468;5.814;2023-05-24T06:48:03;102118.25;;;14.27;100.00
60244;BME280;46106;51.468;5.814;2023-05-24T06:50:29;102115.28;;;14.30;100.00
60244;BME280;46106;51.468;5.814;2023-05-24T06:52:58;102120.97;;;14.03;100.00
60244;BME280;46106;51.468;5.814;2023-05-24T06:55:23;102113.34;;;13.93;100.00
60244;BME280;46106;51.468;5.814;2023-05-24T06:57:49;102126.03;;;13.96;100.00
60244;BME280;46106;51.468;5.814;2023-05-24T07:00:14;102126.25;;;14.06;100.00
60244;BME280;46106;51.468;5.814;2023-05-24T07:02:40;102136.13;;;14.08;100.00
60244;BME280;46106;51.468;5.814;2023-05-24T07:05:06;102134.28;;;14.83;100.00
60244;BME280;46106;51.468;5.814;2023-05-24T07:07:37;102131.41;;;15.20;100.00
60244;BME280;46106;51.468;5.814;2023-05-24T07:10:05;102136.91;;;14.60;100.00
60244;BME280;46106;51.468;5.814;2023-05-24T07:12:31;102140.22;;;14.52;100.00
60244;BME280;46106;51.468;5.814;2023-05-24T07:14:56;102127.06;;;14.93;100.00
60244;BME280;46106;51.468;5.814;2023-05-24T07:17:22;102141.41;;;14.24;100.00
60244;BME280;46106;51.468;5.814;2023-05-24T07:19:47;102145.72;;;14.15;100.00
60244;BME280;46106;51.468;5.814;2023-05-24T07:22:13;102132.75;;;13.92;100.00
60244;BME280;46106;51.468;5.814;2023-05-24T07:24:38;102137.06;;;13.96;100.00
60244;BME280;46106;51.468;5.814;2023-05-24T07:27:04;102142.78;;;13.80;100.00
60244;BME280;46106;51.468;5.814;2023-05-24T07:29:29;102149.16;;;13.81;100.00
60244;BME280;46106;51.468;5.814;2023-05-24T07:31:55;102119.19;;;14.02;100.00
60244;BME280;46106;51.468;5.814;2023-05-24T07:34:22;102140.53;;;14.24;100.00
60244;BME280;46106;51.468;5.814;2023-05-24T07:36:48;102141.81;;;15.16;100.00
60244;BME280;46106;51.468;5.814;2023-05-24T07:39:15;102144.75;;;16.41;93.95
60244;BME280;46106;51.468;5.814;2023-05-24T07:41:40;102144.25;;;16.35;95.04
60244;BME280;46106;51.468;5.814;2023-05-24T07:44:06;102139.03;;;17.08;94.00
60244;BME280;46106;51.468;5.814;2023-05-24T07:46:31;102143.25;;;15.80;93.34
60244;BME280;46106;51.468;5.814;2023-05-24T07:48:58;102146.53;;;14.79;100.00
60244;BME280;46106;51.468;5.814;2023-05-24T07:51:23;102144.72;;;14.66;100.00
60244;BME280;46106;51.468;5.814;2023-05-24T07:53:49;102137.09;;;14.70;100.00
60244;BME280;46106;51.468;5.814;2023-05-24T07:56:15;102144.56;;;14.31;100.00
60244;BME280;46106;51.468;5.814;2023-05-24T07:58:40;102142.31;;;14.86;100.00
60244;BME280;46106;51.468;5.814;2023-05-24T08:01:08;102146.53;;;14.42;100.00
60244;BME280;46106;51.468;5.814;2023-05-24T08:03:33;102134.47;;;14.68;100.00
60244;BME280;46106;51.468;5.814;2023-05-24T08:05:59;102131.97;;;14.03;100.00
60244;BME280;46106;51.468;5.814;2023-05-24T08:08:24;102132.09;;;13.75;100.00
60244;BME280;46106;51.468;5.814;2023-05-24T08:10:49;102133.16;;;14.11;100.00
60244;BME280;46106;51.468;5.814;2023-05-24T08:13:15;102133.22;;;14.97;100.00
60244;BME280;46106;51.468;5.814;2023-05-24T08:15:41;102131.56;;;14.33;100.00
60244;BME280;46106;51.468;5.814;2023-05-24T08:18:06;102135.91;;;14.11;100.00
60244;BME280;46106;51.468;5.814;2023-05-24T08:20:33;102122.03;;;14.13;100.00
60244;BME280;46106;51.468;5.814;2023-05-24T08:23:00;102127.81;;;13.97;100.00
60244;BME280;46106;51.468;5.814;2023-05-24T08:25:25;102131.22;;;13.88;100.00
60244;BME280;46106;51.468;5.814;2023-05-24T08:27:51;102125.06;;;13.58;100.00
60244;BME280;46106;51.468;5.814;2023-05-24T08:30:16;102132.84;;;13.90;100.00
60244;BME280;46106;51.468;5.814;2023-05-24T08:32:42;102121.63;;;13.81;100.00
60244;BME280;46106;51.468;5.814;2023-05-24T08:35:08;102123.63;;;13.78;100.00
60244;BME280;46106;51.468;5.814;2023-05-24T08:37:33;102128.47;;;13.62;100.00
60244;BME280;46106;51.468;5.814;2023-05-24T08:39:58;102127.59;;;13.87;100.00
60244;BME280;46106;51.468;5.814;2023-05-24T08:42:24;102131.16;;;14.63;100.00
60244;BME280;46106;51.468;5.814;2023-05-24T08:45:02;102126.69;;;14.49;100.00
60244;BME280;46106;51.468;5.814;2023-05-24T08:47:29;102130.09;;;15.01;98.92
60244;BME280;46106;51.468;5.814;2023-05-24T08:49:58;102109.53;;;14.94;97.83
60244;BME280;46106;51.468;5.814;2023-05-24T08:52:25;102128.97;;;16.09;93.44
60244;BME280;46106;51.468;5.814;2023-05-24T08:54:52;102132.09;;;16.82;79.88
60244;BME280;46106;51.468;5.814;2023-05-24T08:57:17;102120.94;;;15.94;85.99
60244;BME280;46106;51.468;5.814;2023-05-24T08:59:43;102118.03;;;15.96;86.66
60244;BME280;46106;51.468;5.814;2023-05-24T09:02:13;102134.34;;;15.76;83.62
60244;BME280;46106;51.468;5.814;2023-05-24T09:04:40;102127.44;;;15.24;86.60
60244;BME280;46106;51.468;5.814;2023-05-24T09:07:09;102127.91;;;15.18;88.41
60244;BME280;46106;51.468;5.814;2023-05-24T09:09:42;102130.19;;;16.39;83.24
60244;BME280;46106;51.468;5.814;2023-05-24T09:12:14;102127.53;;;15.58;84.95
60244;BME280;46106;51.468;5.814;2023-05-24T09:14:45;102121.81;;;15.37;84.50
60244;BME280;46106;51.468;5.814;2023-05-24T09:17:11;102120.59;;;15.52;86.75
60244;BME280;46106;51.468;5.814;2023-05-24T09:19:43;102116.03;;;15.29;86.57
60244;BME280;46106;51.468;5.814;2023-05-24T09:22:08;102110.03;;;15.46;89.97
60244;BME280;46106;51.468;5.814;2023-05-24T09:24:42;102107.56;;;16.45;85.64
60244;BME280;46106;51.468;5.814;2023-05-24T09:27:08;102107.38;;;17.01;83.18
60244;BME280;46106;51.468;5.814;2023-05-24T09:29:36;102104.72;;;17.32;76.49
60244;BME280;46106;51.468;5.814;2023-05-24T09:32:03;102100.97;;;17.43;72.61
60244;BME280;46106;51.468;5.814;2023-05-24T09:34:37;102094.84;;;17.60;76.31
60244;BME280;46106;51.468;5.814;2023-05-24T09:37:03;102095.75;;;17.92;74.63
60244;BME280;46106;51.468;5.814;2023-05-24T09:39:29;102104.09;;;18.02;71.81
60244;BME280;46106;51.468;5.814;2023-05-24T09:41:56;102114.03;;;18.45;65.82
60244;BME280;46106;51.468;5.814;2023-05-24T09:44:25;102110.59;;;18.12;65.78
60244;BME280;46106;51.468;5.814;2023-05-24T09:46:57;102100.72;;;17.46;69.12
60244;BME280;46106;51.468;5.814;2023-05-24T09:49:25;102097.31;;;18.15;69.35
60244;BME280;46106;51.468;5.814;2023-05-24T09:51:54;102096.41;;;18.65;66.90
60244;BME280;46106;51.468;5.814;2023-05-24T09:54:20;102090.19;;;18.23;67.80
60244;BME280;46106;51.468;5.814;2023-05-24T09:56:46;102096.25;;;19.45;65.11
60244;BME280;46106;51.468;5.814;2023-05-24T09:59:11;102088.97;;;19.24;63.48
60244;BME280;46106;51.468;5.814;2023-05-24T10:01:37;102083.78;;;19.59;65.93
60244;BME280;46106;51.468;5.814;2023-05-24T10:04:02;102084.38;;;19.53;64.80
60244;BME280;46106;51.468;5.814;2023-05-24T10:06:32;102086.88;;;19.46;63.64
60244;BME280;46106;51.468;5.814;2023-05-24T10:09:02;102088.34;;;18.52;66.24
60244;BME280;46106;51.468;5.814;2023-05-24T10:11:31;102088.03;;;17.64;62.93
60244;BME280;46106;51.468;5.814;2023-05-24T10:13:58;102078.25;;;16.97;66.35
60244;BME280;46106;51.468;5.814;2023-05-24T10:16:24;102093.69;;;17.00;68.89
60244;BME280;46106;51.468;5.814;2023-05-24T10:18:49;102089.03;;;16.68;70.03
60244;BME280;46106;51.468;5.814;2023-05-24T10:21:16;102085.25;;;16.25;72.37
60244;BME280;46106;51.468;5.814;2023-05-24T10:23:47;102078.13;;;16.55;71.13
60244;BME280;46106;51.468;5.814;2023-05-24T10:26:14;102077.69;;;16.16;74.62
60244;BME280;46106;51.468;5.814;2023-05-24T10:28:46;102089.56;;;16.50;72.41
60244;BME280;46106;51.468;5.814;2023-05-24T10:31:31;102091.66;;;15.92;74.56
60244;BME280;46106;51.468;5.814;2023-05-24T10:33:59;102091.50;;;15.71;74.14
60244;BME280;46106;51.468;5.814;2023-05-24T10:36:26;102091.38;;;15.50;76.17
60244;BME280;46106;51.468;5.814;2023-05-24T10:38:53;102092.47;;;15.36;79.72
60244;BME280;46106;51.468;5.814;2023-05-24T10:41:18;102104.53;;;15.57;79.13
60244;BME280;46106;51.468;5.814;2023-05-24T10:43:47;102105.03;;;15.62;78.80
60244;BME280;46106;51.468;5.814;2023-05-24T10:46:14;102101.38;;;15.39;80.65
60244;BME280;46106;51.468;5.814;2023-05-24T10:48:41;102090.72;;;15.46;79.42
60244;BME280;46106;51.468;5.814;2023-05-24T10:51:29;102096.22;;;15.46;78.24
60244;BME280;46106;51.468;5.814;2023-05-24T10:54:12;102094.00;;;15.40;82.94
60244;BME280;46106;51.468;5.814;2023-05-24T10:56:39;102101.75;;;15.46;82.25
60244;BME280;46106;51.468;5.814;2023-05-24T10:59:06;102081.47;;;15.70;84.07
60244;BME280;46106;51.468;5.814;2023-05-24T11:01:33;102084.72;;;15.63;81.78
60244;BME280;46106;51.468;5.814;2023-05-24T11:04:17;102099.53;;;15.74;79.94
60244;BME280;46106;51.468;5.814;2023-05-24T11:07:02;102094.50;;;15.45;83.20
60244;BME280;46106;51.468;5.814;2023-05-24T11:09:29;102098.09;;;15.34;86.33
60244;BME280;46106;51.468;5.814;2023-05-24T11:12:06;102092.50;;;15.70;83.65
60244;BME280;46106;51.468;5.814;2023-05-24T11:14:38;102088.72;;;15.71;83.62
60244;BME280;46106;51.468;5.814;2023-05-24T11:17:05;102091.72;;;15.45;85.00
60244;BME280;46106;51.468;5.814;2023-05-24T11:19:39;102091.78;;;15.21;84.74
60244;BME280;46106;51.468;5.814;2023-05-24T11:22:09;102086.16;;;15.22;85.79
60244;BME280;46106;51.468;5.814;2023-05-24T11:24:40;102087.81;;;15.25;83.82
60244;BME280;46106;51.468;5.814;2023-05-24T11:27:12;102080.91;;;15.31;85.32
60244;BME280;46106;51.468;5.814;2023-05-24T11:29:40;102093.47;;;15.46;84.17
60244;BME280;46106;51.468;5.814;2023-05-24T11:32:05;102079.56;;;15.59;84.80
60244;BME280;46106;51.468;5.814;2023-05-24T11:34:32;102083.09;;;15.61;86.82
60244;BME280;46106;51.468;5.814;2023-05-24T11:37:00;102084.41;;;15.91;86.77
60244;BME280;46106;51.468;5.814;2023-05-24T11:39:33;102081.31;;;16.39;82.18
60244;BME280;46106;51.468;5.814;2023-05-24T11:41:59;102080.72;;;16.13;81.53
60244;BME280;46106;51.468;5.814;2023-05-24T11:44:29;102085.25;;;16.14;85.53
60244;BME280;46106;51.468;5.814;2023-05-24T11:47:03;102075.03;;;16.37;83.67
60244;BME280;46106;51.468;5.814;2023-05-24T11:49:29;102080.72;;;16.68;82.75
60244;BME280;46106;51.468;5.814;2023-05-24T11:51:57;102091.75;;;16.79;79.11
60244;BME280;46106;51.468;5.814;2023-05-24T11:54:26;102085.25;;;16.14;81.74
60244;BME280;46106;51.468;5.814;2023-05-24T11:56:53;102084.63;;;16.10;83.22
60244;BME280;46106;51.468;5.814;2023-05-24T11:59:22;102079.59;;;16.27;82.47
60244;BME280;46106;51.468;5.814;2023-05-24T12:01:56;102074.63;;;16.53;83.49
60244;BME280;46106;51.468;5.814;2023-05-24T12:04:22;102075.91;;;16.26;80.45
60244;BME280;46106;51.468;5.814;2023-05-24T12:06:48;102070.34;;;16.49;79.70
60244;BME280;46106;51.468;5.814;2023-05-24T12:09:14;102066.25;;;16.32;82.74
60244;BME280;46106;51.468;5.814;2023-05-24T12:11:46;102065.66;;;16.17;82.96
60244;BME280;46106;51.468;5.814;2023-05-24T12:14:13;102069.41;;;16.27;82.84
60244;BME280;46106;51.468;5.814;2023-05-24T12:16:41;102069.88;;;16.32;83.91
60244;BME280;46106;51.468;5.814;2023-05-24T12:19:07;102067.25;;;16.20;81.74
60244;BME280;46106;51.468;5.814;2023-05-24T12:21:32;102072.13;;;16.39;79.94
60244;BME280;46106;51.468;5.814;2023-05-24T12:24:24;102065.78;;;16.15;81.05
60244;BME280;46106;51.468;5.814;2023-05-24T12:26:49;102070.13;;;16.29;84.00
60244;BME280;46106;51.468;5.814;2023-05-24T12:29:15;102074.72;;;16.63;79.75
60244;BME280;46106;51.468;5.814;2023-05-24T12:31:47;102059.25;;;16.60;78.96
60244;BME280;46106;51.468;5.814;2023-05-24T12:34:14;102063.13;;;17.01;78.42
60244;BME280;46106;51.468;5.814;2023-05-24T12:36:41;102064.47;;;17.28;76.71
60244;BME280;46106;51.468;5.814;2023-05-24T12:39:26;102057.47;;;17.24;75.08
60244;BME280;46106;51.468;5.814;2023-05-24T12:42:02;102051.19;;;17.22;74.63
60244;BME280;46106;51.468;5.814;2023-05-24T12:44:33;102061.13;;;17.55;73.46
60244;BME280;46106;51.468;5.814;2023-05-24T12:47:01;102048.47;;;17.62;72.51
60244;BME280;46106;51.468;5.814;2023-05-24T12:49:27;102049.91;;;17.57;74.18
60244;BME280;46106;51.468;5.814;2023-05-24T12:51:54;102047.53;;;17.73;72.71
60244;BME280;46106;51.468;5.814;2023-05-24T12:54:25;102041.63;;;18.28;74.54
60244;BME280;46106;51.468;5.814;2023-05-24T12:56:51;102051.28;;;17.93;72.82
60244;BME280;46106;51.468;5.814;2023-05-24T12:59:17;102040.84;;;17.24;73.38
60244;BME280;46106;51.468;5.814;2023-05-24T13:01:43;102042.09;;;16.78;76.50
60244;BME280;46106;51.468;5.814;2023-05-24T13:04:14;102049.22;;;16.92;76.20
60244;BME280;46106;51.468;5.814;2023-05-24T13:06:41;102042.81;;;17.33;74.43